Time;durP1;ratioP1;P1;durP2;ratioP2;P2;SDS_P1;SDS_P2;PMS_P1;PMS_P2;Temp;Humidity;BMP_temperature;BMP_pressure;BME280_temperature;BME280_humidity;BME280_pressure;Samples;Min_cycle;Max_cycle;Signal;HPM_P1;HPM_P2
2022/10/02 00:01:09;;;;;;;26.67;4.93;;;15.90;99.90;;;;;;5116399;28;20639;-89
2022/10/02 00:03:41;;;;;;;28.13;5.33;;;15.90;99.90;;;;;;5116794;28;20203;-88
2022/10/02 00:06:14;;;;;;;27.07;5.53;;;15.80;99.90;;;;;;5117351;28;20192;-87
2022/10/02 00:08:45;;;;;;;21.97;5.17;;;15.90;99.90;;;;;;5117501;28;20677;-90
2022/10/02 00:11:18;;;;;;;28.87;5.53;;;15.90;99.90;;;;;;5117129;27;20218;-88
2022/10/02 00:13:49;;;;;;;27.20;5.33;;;15.90;99.90;;;;;;5117362;28;20200;-89
2022/10/02 00:16:31;;;;;;;30.87;6.27;;;15.90;99.90;;;;;;5116370;28;20189;-89
2022/10/02 00:18:58;;;;;;;27.17;5.77;;;15.90;99.90;;;;;;5116743;28;20194;-89
2022/10/02 00:21:39;;;;;;;25.80;4.87;;;16.00;99.90;;;;;;5117101;28;20657;-88
2022/10/02 00:24:16;;;;;;;27.90;5.10;;;16.00;99.90;;;;;;5116886;28;20198;-89
2022/10/02 00:26:56;;;;;;;27.40;5.00;;;16.00;99.90;;;;;;5117167;28;20647;-89
2022/10/02 00:29:47;;;;;;;26.47;4.80;;;16.00;99.90;;;;;;5116808;28;20217;-90
2022/10/02 00:32:28;;;;;;;26.60;5.37;;;16.00;99.90;;;;;;5117092;28;20213;-88
2022/10/02 00:35:34;;;;;;;26.63;4.77;;;16.20;99.90;;;;;;5117029;28;20200;-89
2022/10/02 00:38:33;;;;;;;27.90;4.93;;;16.10;99.90;;;;;;5116852;28;20203;-86
2022/10/02 00:41:38;;;;;;;25.23;4.97;;;16.00;99.90;;;;;;5117390;28;20211;-86
2022/10/02 00:44:27;;;;;;;24.17;5.20;;;16.10;99.90;;;;;;5085196;28;20207;-86
2022/10/02 00:47:04;;;;;;;29.20;5.33;;;16.00;99.90;;;;;;5116495;28;20211;-90
2022/10/02 00:49:57;;;;;;;32.43;6.00;;;16.00;99.90;;;;;;5116829;28;20296;-88
2022/10/02 00:52:41;;;;;;;32.47;5.93;;;15.90;99.90;;;;;;5116228;28;20198;-87
2022/10/02 00:55:43;;;;;;;21.87;4.43;;;15.70;99.90;;;;;;5116836;28;20534;-87
2022/10/02 00:58:30;;;;;;;35.17;5.80;;;15.70;99.90;;;;;;5116136;28;20216;-89
2022/10/02 01:01:05;;;;;;;21.30;5.10;;;15.70;99.90;;;;;;5115863;28;20190;-87
2022/10/02 01:03:39;;;;;;;25.47;5.30;;;15.60;99.90;;;;;;5116045;28;20200;-87
2022/10/02 01:06:08;;;;;;;23.73;4.83;;;15.60;99.90;;;;;;5115463;28;20187;-89
2022/10/02 01:08:40;;;;;;;23.73;4.50;;;15.60;99.90;;;;;;5115567;28;20195;-87
2022/10/02 01:11:10;;;;;;;28.20;4.67;;;15.60;99.90;;;;;;5115916;28;20601;-88
2022/10/02 01:13:40;;;;;;;26.60;4.50;;;15.60;99.90;;;;;;5115565;28;20682;-87
2022/10/02 01:16:12;;;;;;;29.23;6.53;;;15.60;99.90;;;;;;5115646;28;20202;-87
2022/10/02 01:18:44;;;;;;;24.43;5.17;;;15.60;99.90;;;;;;5115789;28;20205;-91
2022/10/02 01:21:25;;;;;;;28.70;6.23;;;15.60;99.90;;;;;;5115853;28;20700;-90
2022/10/02 01:24:05;;;;;;;27.60;5.00;;;15.60;99.90;;;;;;5116048;28;20218;-90
2022/10/02 01:26:35;;;;;;;25.33;5.30;;;15.60;99.90;;;;;;5115812;28;20202;-90
2022/10/02 01:29:02;;;;;;;26.20;6.00;;;15.60;99.90;;;;;;5115450;28;20223;-90
2022/10/02 01:31:35;;;;;;;25.27;5.23;;;15.60;99.90;;;;;;5115776;28;20264;-90
2022/10/02 01:34:05;;;;;;;25.80;4.63;;;15.60;99.90;;;;;;5115713;28;20750;-90
2022/10/02 01:36:34;;;;;;;25.23;4.93;;;15.60;99.90;;;;;;5115222;28;20280;-89
2022/10/02 01:39:13;;;;;;;25.67;4.60;;;15.50;99.90;;;;;;5115669;28;20209;-90
2022/10/02 01:41:44;;;;;;;24.27;4.97;;;15.50;99.90;;;;;;5115549;28;20213;-88
2022/10/02 01:44:19;;;;;;;25.17;4.63;;;15.50;99.90;;;;;;5115035;28;20189;-88
2022/10/02 01:46:55;;;;;;;27.03;4.80;;;15.50;99.90;;;;;;5114875;28;20192;-89
2022/10/02 01:49:45;;;;;;;18.17;4.90;;;15.50;99.90;;;;;;5114945;28;20229;-87
2022/10/02 01:52:28;;;;;;;21.60;4.53;;;15.50;99.90;;;;;;5114971;28;20644;-85
2022/10/02 01:55:16;;;;;;;28.03;4.17;;;15.50;99.90;;;;;;5115282;28;20626;-84
2022/10/02 01:57:58;;;;;;;24.17;4.80;;;15.50;99.90;;;;;;5114775;28;20214;-88
2022/10/02 02:00:27;;;;;;;25.13;4.27;;;15.40;99.90;;;;;;5115002;28;20209;-89
2022/10/02 02:03:05;;;;;;;24.23;4.80;;;15.30;99.90;;;;;;5115399;28;20201;-87
2022/10/02 02:05:46;;;;;;;26.37;4.67;;;15.30;99.90;;;;;;5113291;28;20607;-88
2022/10/02 02:08:28;;;;;;;20.77;4.67;;;15.30;99.90;;;;;;5114790;28;20213;-88
2022/10/02 02:11:10;;;;;;;19.70;4.10;;;15.20;99.90;;;;;;5114501;28;20220;-88
2022/10/02 02:13:46;;;;;;;24.92;4.90;;;15.10;99.90;;;;;;5114123;28;20429;-90
2022/10/02 02:16:23;;;;;;;23.43;4.97;;;15.10;99.90;;;;;;5114829;28;20211;-91
2022/10/02 02:18:57;;;;;;;18.37;3.43;;;15.10;99.90;;;;;;5114807;28;20467;-89
2022/10/02 02:21:29;;;;;;;18.20;3.57;;;15.00;99.90;;;;;;5114788;28;20231;-88
2022/10/02 02:24:09;;;;;;;21.47;3.67;;;15.00;99.90;;;;;;5114850;28;20208;-87
2022/10/02 02:26:42;;;;;;;17.77;3.93;;;15.00;99.90;;;;;;5114420;28;20209;-86
2022/10/02 02:29:15;;;;;;;17.70;3.80;;;15.00;99.90;;;;;;5114300;28;20549;-86
2022/10/02 02:31:51;;;;;;;16.43;3.30;;;14.90;99.90;;;;;;5114561;28;20203;-86
2022/10/02 02:34:23;;;;;;;19.07;3.70;;;15.10;99.90;;;;;;5114745;28;20550;-88
2022/10/02 02:36:57;;;;;;;21.00;3.60;;;14.90;99.90;;;;;;5114550;28;20200;-88
2022/10/02 02:39:31;;;;;;;15.93;3.60;;;14.90;99.90;;;;;;5114437;28;20654;-88
2022/10/02 02:42:07;;;;;;;20.33;3.43;;;14.90;99.90;;;;;;5114291;28;20202;-89
2022/10/02 02:44:41;;;;;;;16.07;3.43;;;14.90;99.90;;;;;;5114507;28;20188;-92
2022/10/02 02:47:18;;;;;;;16.73;4.00;;;14.90;99.90;;;;;;5114075;28;20207;-89
2022/10/02 02:49:57;;;;;;;18.40;4.20;;;14.90;99.90;;;;;;5114252;28;20303;-88
2022/10/02 02:52:29;;;;;;;19.50;3.63;;;14.80;99.90;;;;;;5114171;28;20204;-88
2022/10/02 02:55:02;;;;;;;22.03;4.43;;;14.80;99.90;;;;;;5114085;28;20529;-89
2022/10/02 02:57:36;;;;;;;14.10;3.27;;;14.80;99.90;;;;;;5114134;28;20208;-87
2022/10/02 03:00:07;;;;;;;17.27;2.77;;;14.80;99.90;;;;;;5114300;28;20555;-86
2022/10/02 03:02:37;;;;;;;16.27;3.10;;;14.80;99.90;;;;;;5113527;28;20235;-84
2022/10/02 03:05:13;;;;;;;16.00;3.93;;;14.80;99.90;;;;;;5114663;28;20202;-85
2022/10/02 03:07:50;;;;;;;15.43;3.40;;;14.70;99.90;;;;;;5113969;28;20616;-86
2022/10/02 03:10:29;;;;;;;19.00;3.60;;;14.70;99.90;;;;;;5113256;28;20467;-90
2022/10/02 03:13:09;;;;;;;19.53;3.63;;;14.80;99.90;;;;;;5114705;28;20204;-92
2022/10/02 03:15:49;;;;;;;14.77;3.23;;;14.70;99.90;;;;;;5114358;28;20645;-88
2022/10/02 03:18:36;;;;;;;11.07;3.33;;;14.80;99.90;;;;;;5113741;28;20200;-87
2022/10/02 03:21:11;;;;;;;14.63;3.23;;;14.70;99.90;;;;;;5113888;28;20216;-91
2022/10/02 03:23:56;;;;;;;12.70;2.63;;;14.70;99.90;;;;;;5114110;28;20188;-91
2022/10/02 03:26:33;;;;;;;9.73;2.60;;;14.70;99.90;;;;;;5114498;28;20203;-91
2022/10/02 03:29:08;;;;;;;14.73;2.27;;;14.60;99.90;;;;;;5114108;28;20196;-89
2022/10/02 03:31:37;;;;;;;15.77;3.13;;;14.60;99.90;;;;;;5113716;28;20303;-91
2022/10/02 03:34:07;;;;;;;14.07;3.53;;;14.70;99.90;;;;;;5113932;28;20205;-90
2022/10/02 03:36:47;;;;;;;12.33;3.13;;;14.60;99.90;;;;;;5114293;28;20212;-90
2022/10/02 03:39:40;;;;;;;12.20;2.93;;;14.70;99.90;;;;;;5117896;28;20199;-91
2022/10/02 03:42:11;;;;;;;12.90;2.97;;;14.70;99.90;;;;;;5118458;28;20261;-91
2022/10/02 03:44:42;;;;;;;13.17;2.63;;;14.70;99.90;;;;;;5117860;28;20204;-90
2022/10/02 03:47:19;;;;;;;16.00;2.80;;;14.60;99.90;;;;;;5117814;28;20208;-91
2022/10/02 03:49:51;;;;;;;11.53;2.80;;;14.60;99.90;;;;;;5117779;28;20697;-84
2022/10/02 03:52:20;;;;;;;10.23;2.13;;;14.60;99.90;;;;;;5117479;28;20193;-90
2022/10/02 03:54:57;;;;;;;13.73;2.90;;;14.60;99.90;;;;;;5117179;28;20664;-88
2022/10/02 03:57:26;;;;;;;11.40;3.03;;;14.60;99.90;;;;;;5117822;28;20275;-91
2022/10/02 04:00:01;;;;;;;12.97;3.13;;;14.60;99.90;;;;;;5117258;28;20204;-87
2022/10/02 04:02:37;;;;;;;14.77;3.27;;;14.50;99.90;;;;;;5117197;28;20221;-90
2022/10/02 04:05:20;;;;;;;13.33;3.20;;;14.60;99.90;;;;;;5117755;28;20207;-85
2022/10/02 04:07:52;;;;;;;21.35;4.22;;;14.60;99.90;;;;;;5116858;28;20432;-88
2022/10/02 04:10:31;;;;;;;13.20;3.00;;;14.60;99.90;;;;;;5117012;28;20221;-91
2022/10/02 04:13:11;;;;;;;12.63;3.23;;;14.60;99.90;;;;;;5117300;28;20197;-90
2022/10/02 04:15:56;;;;;;;17.60;3.17;;;14.50;99.90;;;;;;5116713;28;20674;-90
2022/10/02 04:18:32;;;;;;;21.77;3.53;;;14.50;99.90;;;;;;5117222;28;20269;-89
2022/10/02 04:21:09;;;;;;;10.13;2.57;;;14.50;99.90;;;;;;5117224;28;20189;-87
2022/10/02 04:23:50;;;;;;;10.83;2.93;;;14.40;99.90;;;;;;5116858;28;20192;-89
2022/10/02 04:26:23;;;;;;;10.80;2.40;;;14.30;99.90;;;;;;5117648;28;20205;-92
2022/10/02 04:28:56;;;;;;;15.47;2.90;;;14.20;99.90;;;;;;5117206;28;20189;-89
2022/10/02 04:31:27;;;;;;;14.63;2.57;;;14.20;99.90;;;;;;5117353;28;20230;-89
2022/10/02 04:34:01;;;;;;;12.73;3.03;;;14.20;99.90;;;;;;5117427;28;20200;-88
2022/10/02 04:36:42;;;;;;;13.23;2.80;;;14.10;99.90;;;;;;5117558;28;20204;-89
2022/10/02 04:39:36;;;;;;;15.47;2.40;;;14.10;99.90;;;;;;5117342;28;20200;-89
2022/10/02 04:42:21;;;;;;;13.07;2.97;;;14.10;99.90;;;;;;5121234;28;20205;-88
2022/10/02 04:45:02;;;;;;;14.10;2.40;;;14.00;99.90;;;;;;5130841;28;20573;-89
2022/10/02 04:47:44;;;;;;;18.17;2.70;;;14.10;99.90;;;;;;5130361;28;20192;-89
2022/10/02 04:50:35;;;;;;;13.80;2.63;;;14.10;99.90;;;;;;5130572;28;20208;-87
2022/10/02 04:53:16;;;;;;;16.27;2.90;;;14.10;99.90;;;;;;5130874;28;20212;-88
2022/10/02 04:56:14;;;;;;;12.40;2.67;;;14.00;99.90;;;;;;5128896;28;20655;-87
2022/10/02 04:59:12;;;;;;;10.73;2.63;;;14.00;99.90;;;;;;5128757;28;20205;-89
2022/10/02 05:01:56;;;;;;;16.67;2.90;;;14.00;99.90;;;;;;5121862;27;20761;-88
2022/10/02 05:04:54;;;;;;;16.10;2.90;;;14.00;99.90;;;;;;5137940;27;20200;-90
2022/10/02 05:11:13;;;;;;;11.80;2.43;;;14.00;99.90;;;;;;5133565;27;20619;-89
2022/10/02 05:14:00;;;;;;;12.40;3.10;;;14.00;99.90;;;;;;5133045;27;20215;-87
2022/10/02 05:17:07;;;;;;;15.13;3.40;;;14.00;99.90;;;;;;5132842;27;20203;-92
2022/10/02 05:19:59;;;;;;;20.50;2.87;;;14.00;99.90;;;;;;5132183;27;20194;-87
2022/10/02 05:22:51;;;;;;;13.23;3.47;;;14.00;99.90;;;;;;5132154;27;20194;-86
2022/10/02 05:25:44;;;;;;;15.77;3.40;;;14.00;99.90;;;;;;5132175;27;20211;-87
2022/10/02 05:28:43;;;;;;;17.40;3.00;;;14.00;99.90;;;;;;5132018;27;20206;-89
2022/10/02 05:31:21;;;;;;;15.20;2.57;;;14.00;99.90;;;;;;5132195;27;20214;-90
2022/10/02 05:33:57;;;;;;;19.40;3.10;;;14.10;99.90;;;;;;5132656;27;20215;-86
2022/10/02 05:37:05;;;;;;;19.10;4.22;;;14.10;99.90;;;;;;5130824;27;20431;-88
2022/10/02 05:39:39;;;;;;;12.97;2.57;;;14.20;99.90;;;;;;5132042;27;20204;-87
2022/10/02 05:42:15;;;;;;;11.47;2.87;;;14.20;99.90;;;;;;5132148;27;20226;-89
2022/10/02 05:44:47;;;;;;;20.57;3.57;;;14.20;99.90;;;;;;5134316;27;20200;-86
2022/10/02 05:47:26;;;;;;;14.07;2.87;;;14.20;99.90;;;;;;5134648;27;20554;-87
2022/10/02 05:50:03;;;;;;;14.10;2.83;;;14.20;99.90;;;;;;5133341;27;20224;-86
2022/10/02 05:52:37;;;;;;;12.57;2.70;;;14.20;99.90;;;;;;5128152;27;20211;-89
2022/10/02 05:55:19;;;;;;;13.73;3.10;;;14.10;99.90;;;;;;5129787;27;20195;-91
2022/10/02 05:57:52;;;;;;;14.47;2.70;;;14.10;99.90;;;;;;5130704;27;20218;-90
2022/10/02 06:00:30;;;;;;;13.37;3.10;;;14.10;99.90;;;;;;5128162;27;20215;-91
2022/10/02 06:03:09;;;;;;;16.17;2.92;;;14.10;99.90;;;;;;5124233;28;20420;-91
2022/10/02 06:05:45;;;;;;;18.10;2.97;;;14.20;99.90;;;;;;5121773;27;20199;-93
2022/10/02 06:08:16;;;;;;;16.27;3.43;;;14.20;99.90;;;;;;5110689;28;20565;-91
2022/10/02 06:10:50;;;;;;;14.67;3.07;;;14.10;99.90;;;;;;5111400;28;20226;-90
2022/10/02 06:13:30;;;;;;;13.40;3.30;;;14.10;99.90;;;;;;5112234;28;20533;-96
2022/10/02 06:16:12;;;;;;;13.40;3.13;;;14.10;99.90;;;;;;5115516;28;20199;-95
2022/10/02 06:18:44;;;;;;;13.10;3.33;;;14.10;99.90;;;;;;5111933;28;20382;-95
2022/10/02 06:21:20;;;;;;;12.07;3.63;;;14.10;99.90;;;;;;5100764;28;20196;-96
2022/10/02 06:23:55;;;;;;;15.53;3.83;;;14.10;99.90;;;;;;5097602;28;20189;-94
2022/10/02 06:26:29;;;;;;;10.47;3.37;;;14.10;99.90;;;;;;5099522;28;20204;-96
2022/10/02 06:29:05;;;;;;;12.90;3.10;;;14.10;99.90;;;;;;5100852;28;20221;-91
2022/10/02 06:31:39;;;;;;;12.50;2.97;;;14.10;99.90;;;;;;5097779;28;20199;-90
2022/10/02 06:34:11;;;;;;;12.17;3.00;;;14.10;99.90;;;;;;5096990;28;20191;-86
2022/10/02 06:37:03;;;;;;;13.33;2.90;;;14.10;99.90;;;;;;5096878;28;20193;-93
2022/10/02 06:39:48;;;;;;;16.47;3.37;;;14.10;99.90;;;;;;5094859;28;20208;-93
2022/10/02 06:42:27;;;;;;;13.07;2.93;;;14.00;99.90;;;;;;5097783;28;20286;-92
2022/10/02 06:45:02;;;;;;;13.40;4.10;;;14.00;99.90;;;;;;5097679;28;20189;-94
2022/10/02 06:47:52;;;;;;;12.67;3.77;;;13.90;99.90;;;;;;5097673;28;20617;-94
2022/10/02 06:50:39;;;;;;;14.43;2.83;;;13.90;99.90;;;;;;5096775;28;20452;-93
2022/10/02 06:53:19;;;;;;;17.43;4.17;;;13.80;99.90;;;;;;5097153;28;20189;-91
2022/10/02 06:55:58;;;;;;;15.83;3.10;;;13.80;99.90;;;;;;5096787;28;20195;-92
2022/10/02 06:58:40;;;;;;;15.30;3.87;;;13.90;99.90;;;;;;5096844;28;20197;-87
2022/10/02 07:01:15;;;;;;;10.07;2.77;;;13.90;99.90;;;;;;5102999;28;20212;-87
2022/10/02 07:04:05;;;;;;;9.00;2.97;;;13.90;99.90;;;;;;5116245;28;20220;-83
2022/10/02 07:06:45;;;;;;;19.53;3.93;;;13.90;99.90;;;;;;5107136;28;20594;-86
2022/10/02 07:09:35;;;;;;;10.73;3.23;;;13.90;99.90;;;;;;5110908;28;20232;-84
2022/10/02 07:12:15;;;;;;;14.00;3.30;;;14.00;99.90;;;;;;5106575;28;20181;-85
2022/10/02 07:15:00;;;;;;;9.67;3.10;;;14.00;99.90;;;;;;5112854;28;20200;-85
2022/10/02 07:17:37;;;;;;;9.93;3.20;;;14.00;99.90;;;;;;5111542;28;20216;-86
2022/10/02 07:20:33;;;;;;;10.40;2.60;;;14.10;99.90;;;;;;5095196;28;20216;-84
2022/10/02 07:23:17;;;;;;;14.17;3.73;;;14.10;99.90;;;;;;5073262;28;20205;-87
2022/10/02 07:26:20;;;;;;;10.17;3.23;;;14.00;99.90;;;;;;5101026;28;20264;-86
2022/10/02 07:28:53;;;;;;;11.77;2.70;;;14.00;99.90;;;;;;5102495;28;20655;-87
2022/10/02 07:31:32;;;;;;;11.40;2.87;;;14.00;99.90;;;;;;5098563;28;20209;-86
2022/10/02 07:34:21;;;;;;;10.37;2.90;;;13.90;99.90;;;;;;5096191;28;20667;-85
2022/10/02 07:36:58;;;;;;;13.63;3.20;;;14.00;99.90;;;;;;5095800;28;20208;-86
2022/10/02 07:39:39;;;;;;;12.40;2.47;;;14.00;99.90;;;;;;5095970;28;20205;-85
2022/10/02 07:42:37;;;;;;;13.77;2.73;;;14.00;99.90;;;;;;5097766;28;20590;-85
2022/10/02 07:45:21;;;;;;;9.67;2.37;;;14.00;99.90;;;;;;5089067;28;20216;-86
2022/10/02 07:48:19;;;;;;;12.57;3.10;;;14.10;99.90;;;;;;5095372;28;20204;-85
2022/10/02 07:51:03;;;;;;;7.43;2.10;;;14.10;99.90;;;;;;5093691;28;20229;-85
2022/10/02 07:53:38;;;;;;;10.57;2.10;;;14.20;99.90;;;;;;5107249;28;20643;-83
2022/10/02 07:56:18;;;;;;;5.70;1.97;;;14.20;99.90;;;;;;5116432;28;20204;-89
2022/10/02 07:58:51;;;;;;;7.53;2.63;;;14.20;99.90;;;;;;5110186;28;20201;-86
2022/10/02 08:01:23;;;;;;;7.90;2.00;;;14.20;99.90;;;;;;5106399;28;20204;-89
2022/10/02 08:03:54;;;;;;;7.83;2.33;;;14.20;99.90;;;;;;5112277;28;20221;-83
2022/10/02 08:06:21;;;;;;;7.60;2.53;;;14.30;99.90;;;;;;5114802;27;20214;-83
2022/10/02 08:08:54;;;;;;;8.63;2.43;;;14.40;99.90;;;;;;5115433;28;20219;-85
2022/10/02 08:11:29;;;;;;;7.03;2.30;;;14.50;99.90;;;;;;5115232;27;20693;-84
2022/10/02 08:13:59;;;;;;;6.77;2.43;;;14.50;99.90;;;;;;5115743;28;20290;-89
2022/10/02 08:16:31;;;;;;;4.60;2.10;;;14.50;99.90;;;;;;5115432;28;20215;-92
2022/10/02 08:19:01;;;;;;;7.43;2.07;;;14.50;99.90;;;;;;5116972;28;20313;-91
2022/10/02 08:21:32;;;;;;;4.93;1.87;;;14.50;99.90;;;;;;5115785;28;20682;-90
2022/10/02 08:24:05;;;;;;;7.87;2.47;;;14.40;99.90;;;;;;5116562;28;20200;-86
2022/10/02 08:26:36;;;;;;;5.23;2.10;;;14.40;99.90;;;;;;5116361;28;20201;-92
2022/10/02 08:29:10;;;;;;;7.37;2.13;;;14.40;99.90;;;;;;5118281;28;20270;-95
2022/10/02 08:31:39;;;;;;;7.90;2.00;;;14.30;99.90;;;;;;5121811;28;20260;-84
2022/10/02 08:34:13;;;;;;;9.13;2.60;;;14.40;99.90;;;;;;5121837;28;20682;-92
2022/10/02 08:36:55;;;;;;;8.23;1.80;;;14.30;99.90;;;;;;5116680;28;20195;-96
2022/10/02 08:39:41;;;;;;;5.10;2.20;;;14.30;99.90;;;;;;5116266;28;20204;-90
2022/10/02 08:42:44;;;;;;;7.43;2.47;;;14.30;99.90;;;;;;5116452;28;20207;-95
2022/10/02 08:45:47;;;;;;;10.90;2.20;;;14.30;99.90;;;;;;5115700;28;20190;-86
2022/10/02 08:48:41;;;;;;;6.37;1.90;;;14.40;99.90;;;;;;5117404;28;20185;-86
2022/10/02 08:51:44;;;;;;;4.57;2.00;;;14.50;99.90;;;;;;5116597;27;20552;-92
2022/10/02 08:54:35;;;;;;;6.93;2.63;;;14.50;99.90;;;;;;5117671;28;20279;-88
2022/10/02 08:57:40;;;;;;;6.07;2.08;;;14.40;99.90;;;;;;5119059;28;20436;-93
2022/10/02 09:00:09;;;;;;;3.07;2.17;;;14.50;99.90;;;;;;5115316;28;20208;-90
2022/10/02 09:03:06;;;;;;;5.57;1.90;;;14.50;99.90;;;;;;5114917;28;20265;-95
2022/10/02 09:06:18;;;;;;;7.13;2.17;;;14.60;99.90;;;;;;5115473;28;20230;-95
2022/10/02 09:09:23;;;;;;;5.30;1.90;;;14.60;99.90;;;;;;5114556;28;20218;-95
2022/10/02 09:12:25;;;;;;;4.93;1.73;;;14.70;99.90;;;;;;5115017;28;20219;-95
2022/10/02 09:14:58;;;;;;;5.57;2.33;;;14.70;99.90;;;;;;5122556;28;20207;-88
2022/10/02 09:18:06;;;;;;;5.23;1.60;;;14.60;99.90;;;;;;5116886;28;20552;-94
2022/10/02 09:21:07;;;;;;;4.97;1.93;;;14.60;99.90;;;;;;5084594;28;20211;-94
2022/10/02 09:24:14;;;;;;;4.20;2.10;;;14.60;99.90;;;;;;5111386;28;20754;-91
2022/10/02 09:27:13;;;;;;;5.27;1.93;;;14.60;99.90;;;;;;5094801;28;20201;-93
2022/10/02 09:30:07;;;;;;;5.90;2.20;;;14.60;99.90;;;;;;5063203;28;20226;-87
2022/10/02 09:33:05;;;;;;;6.07;2.10;;;14.60;99.90;;;;;;5100774;28;20201;-89
2022/10/02 09:36:02;;;;;;;5.67;1.97;;;14.60;99.90;;;;;;5113997;28;20205;-88
2022/10/02 09:39:02;;;;;;;5.37;2.47;;;14.60;99.90;;;;;;5114240;28;20243;-88
2022/10/02 09:42:07;;;;;;;5.80;2.37;;;14.50;99.90;;;;;;5093511;28;20206;-87
2022/10/02 09:45:13;;;;;;;3.13;1.70;;;14.40;99.90;;;;;;5092961;28;20538;-88
2022/10/02 09:48:19;;;;;;;5.40;1.97;;;14.40;99.90;;;;;;5060060;28;20286;-88
2022/10/02 09:51:19;;;;;;;4.87;1.90;;;14.40;99.90;;;;;;5052818;28;20700;-89
2022/10/02 09:54:37;;;;;;;3.47;1.83;;;14.30;99.90;;;;;;5093890;28;20205;-87
2022/10/02 09:57:38;;;;;;;4.70;2.13;;;14.30;99.90;;;;;;5014766;28;20648;-87
2022/10/02 10:00:21;;;;;;;5.37;2.50;;;14.20;99.90;;;;;;5015646;28;20195;-87
2022/10/02 10:03:35;;;;;;;5.40;1.90;;;14.20;99.90;;;;;;5079615;28;20711;-88
2022/10/02 10:06:39;;;;;;;10.87;2.50;;;14.20;99.90;;;;;;5097534;28;20205;-88
2022/10/02 10:09:49;;;;;;;5.33;1.97;;;14.30;99.90;;;;;;5096656;28;20216;-87
2022/10/02 10:12:46;;;;;;;5.23;2.43;;;14.30;99.90;;;;;;5096845;28;20201;-86
2022/10/02 10:15:36;;;;;;;5.70;2.30;;;14.40;99.90;;;;;;5096830;28;20190;-86
2022/10/02 10:18:35;;;;;;;5.37;2.27;;;14.40;99.90;;;;;;5096621;28;20682;-87
2022/10/02 10:21:26;;;;;;;3.63;1.97;;;14.50;99.90;;;;;;5096996;28;20266;-86
2022/10/02 10:24:32;;;;;;;3.07;1.80;;;14.50;99.90;;;;;;5096481;28;20224;-86
2022/10/02 10:27:39;;;;;;;8.07;2.67;;;14.60;99.90;;;;;;5081194;28;20205;-86
2022/10/02 10:30:49;;;;;;;4.23;1.90;;;14.70;99.90;;;;;;5034359;28;20235;-86
2022/10/02 10:40:12;;;;;;;3.23;1.70;;;14.90;99.90;;;;;;5153364;27;20245;-87
2022/10/02 10:43:14;;;;;;;5.43;2.20;;;14.90;99.90;;;;;;5152817;27;20251;-85
2022/10/02 10:45:58;;;;;;;3.90;1.87;;;15.00;99.90;;;;;;5152302;27;20238;-87
2022/10/02 10:48:47;;;;;;;3.93;1.60;;;15.10;99.90;;;;;;5152753;27;20200;-88
2022/10/02 10:51:29;;;;;;;4.67;1.67;;;15.00;99.90;;;;;;5153036;27;20189;-85
2022/10/02 10:54:21;;;;;;;6.93;2.40;;;15.10;99.90;;;;;;5152693;27;20619;-85
2022/10/02 10:56:52;;;;;;;4.73;1.70;;;15.20;99.90;;;;;;5151593;27;20197;-87
2022/10/02 10:59:57;;;;;;;3.57;1.97;;;15.30;99.90;;;;;;5150263;27;20190;-86
2022/10/02 11:02:59;;;;;;;5.73;2.17;;;15.40;99.90;;;;;;5051177;28;20220;-86
2022/10/02 11:06:03;;;;;;;4.37;2.10;;;15.20;99.90;;;;;;5130663;27;20199;-86
2022/10/02 11:09:15;;;;;;;4.53;2.10;;;15.20;99.90;;;;;;5132194;27;20208;-85
2022/10/02 11:12:03;;;;;;;9.97;1.93;;;15.10;99.90;;;;;;5132068;28;20292;-88
2022/10/02 11:14:42;;;;;;;4.90;2.03;;;15.20;99.90;;;;;;5131643;28;20228;-86
2022/10/02 11:17:38;;;;;;;6.17;2.43;;;15.40;99.90;;;;;;5131676;27;20205;-86
2022/10/02 11:20:28;;;;;;;4.40;2.13;;;15.40;99.90;;;;;;5090111;28;20211;-81
2022/10/02 11:23:20;;;;;;;6.80;2.03;;;15.50;99.90;;;;;;5131039;27;20392;-86
2022/10/02 11:26:08;;;;;;;3.77;2.20;;;15.70;99.90;;;;;;5119623;28;20209;-86
2022/10/02 11:29:14;;;;;;;3.67;2.03;;;15.60;99.90;;;;;;5131108;27;20198;-86
2022/10/02 11:32:08;;;;;;;5.97;2.10;;;15.40;99.90;;;;;;5107809;27;20214;-85
2022/10/02 11:35:05;;;;;;;4.67;2.13;;;15.40;99.90;;;;;;5131686;28;20241;-81
2022/10/02 11:38:13;;;;;;;2.80;1.63;;;15.40;99.90;;;;;;5131904;28;20208;-85
2022/10/02 11:41:11;;;;;;;4.53;2.30;;;15.60;99.90;;;;;;5096755;28;20215;-87
2022/10/02 11:44:09;;;;;;;8.57;2.33;;;15.60;99.90;;;;;;5129041;27;20207;-84
2022/10/02 11:46:55;;;;;;;5.80;2.60;;;15.60;99.90;;;;;;5111857;27;20659;-86
2022/10/02 11:50:00;;;;;;;6.60;4.00;;;15.70;99.90;;;;;;5118089;28;20673;-86
2022/10/02 11:53:02;;;;;;;6.50;3.40;;;15.80;99.90;;;;;;5116951;27;20206;-87
2022/10/02 11:55:48;;;;;;;10.23;4.23;;;15.90;99.90;;;;;;5116482;28;20227;-85
2022/10/02 11:58:27;;;;;;;10.00;5.80;;;16.00;99.90;;;;;;5116630;28;20660;-86
2022/10/02 12:01:18;;;;;;;8.97;3.20;;;16.10;99.90;;;;;;5116803;28;20702;-86
2022/10/02 12:03:54;;;;;;;6.53;2.47;;;16.10;99.90;;;;;;5116296;28;20221;-86
2022/10/02 12:06:36;;;;;;;6.30;2.87;;;16.00;99.90;;;;;;5116786;28;20211;-85
2022/10/02 12:09:09;;;;;;;5.93;2.87;;;16.00;99.90;;;;;;5116241;28;20211;-85
2022/10/02 12:11:44;;;;;;;6.77;2.77;;;16.10;99.90;;;;;;5115106;28;20203;-86
2022/10/02 12:14:22;;;;;;;4.30;2.83;;;16.20;99.90;;;;;;5116857;28;20206;-86
2022/10/02 12:17:08;;;;;;;5.57;2.67;;;16.20;99.90;;;;;;5116738;28;20198;-88
2022/10/02 12:28:28;;;;;;;4.33;2.20;;;16.20;99.90;;;;;;5115748;28;20192;-81
2022/10/02 12:31:04;;;;;;;2.73;1.90;;;16.20;99.90;;;;;;5116384;28;20196;-84
2022/10/02 12:33:42;;;;;;;6.43;2.67;;;16.10;99.90;;;;;;5116134;28;20287;-84
2022/10/02 12:36:33;;;;;;;8.17;2.43;;;16.10;99.90;;;;;;5115852;28;20271;-84
2022/10/02 12:39:12;;;;;;;5.40;2.67;;;16.30;99.90;;;;;;5116656;28;20391;-86
2022/10/02 12:41:58;;;;;;;5.13;3.27;;;16.20;99.90;;;;;;5115688;28;20211;-85
2022/10/02 12:45:06;;;;;;;4.87;3.00;;;16.30;99.90;;;;;;5115610;28;20209;-83
2022/10/02 12:48:03;;;;;;;6.50;3.30;;;16.30;99.90;;;;;;5116079;28;20192;-84
2022/10/02 12:50:46;;;;;;;10.13;4.03;;;16.30;99.90;;;;;;5114022;28;20433;-84
2022/10/02 12:53:51;;;;;;;7.23;3.77;;;16.30;99.90;;;;;;5115439;28;20193;-85
2022/10/02 12:56:53;;;;;;;7.17;4.83;;;16.20;99.90;;;;;;5115449;28;20231;-86
2022/10/02 12:59:31;;;;;;;9.27;4.20;;;16.10;99.90;;;;;;5114487;28;20188;-89
2022/10/02 13:02:39;;;;;;;6.57;4.40;;;16.30;99.90;;;;;;5113947;28;20223;-83
2022/10/02 13:05:27;;;;;;;8.87;4.40;;;16.50;99.90;;;;;;5055968;28;20198;-86
2022/10/02 13:08:18;;;;;;;9.00;4.00;;;16.70;99.90;;;;;;5094945;28;20651;-83
2022/10/02 13:10:49;;;;;;;7.10;4.40;;;16.70;99.90;;;;;;5094507;28;20222;-83
2022/10/02 13:13:53;;;;;;;9.53;4.63;;;16.70;99.90;;;;;;5095083;28;20199;-85
2022/10/02 13:16:29;;;;;;;4.53;4.00;;;16.60;99.90;;;;;;5094877;28;20226;-83
2022/10/02 13:19:07;;;;;;;8.60;4.70;;;16.50;99.90;;;;;;5094891;28;20185;-84
2022/10/02 13:21:46;;;;;;;11.03;5.03;;;16.60;99.90;;;;;;5094713;28;20200;-85
2022/10/02 13:24:32;;;;;;;9.67;5.10;;;16.60;99.90;;;;;;5095882;28;20233;-89
2022/10/02 13:27:15;;;;;;;6.43;4.20;;;16.70;99.90;;;;;;5095641;28;20198;-91
2022/10/02 13:29:51;;;;;;;8.80;4.57;;;16.70;99.90;;;;;;5095390;28;20206;-91
2022/10/02 13:32:51;;;;;;;9.17;4.60;;;16.80;99.90;;;;;;5095714;28;20196;-90
2022/10/02 13:35:52;;;;;;;8.10;5.13;;;16.70;99.90;;;;;;5091794;28;20783;-89
2022/10/02 13:38:42;;;;;;;11.90;4.70;;;16.80;99.90;;;;;;5095192;28;20210;-90
2022/10/02 13:41:25;;;;;;;7.07;4.75;;;16.90;99.90;;;;;;5094809;28;20785;-91
2022/10/02 13:44:11;;;;;;;9.50;4.77;;;17.00;99.90;;;;;;5096095;28;20208;-89
2022/10/02 13:47:08;;;;;;;6.27;4.40;;;17.00;99.90;;;;;;5095288;28;20199;-88
2022/10/02 13:49:52;;;;;;;8.87;4.20;;;17.00;99.90;;;;;;5108468;28;20198;-91
2022/10/02 13:52:30;;;;;;;10.83;3.93;;;16.90;99.90;;;;;;5114637;28;20204;-88
2022/10/02 13:55:20;;;;;;;9.80;4.77;;;16.90;99.90;;;;;;5115127;28;20214;-90
2022/10/02 13:58:27;;;;;;;9.93;4.70;;;16.80;99.90;;;;;;5113976;28;20197;-93
2022/10/02 14:01:11;;;;;;;10.13;4.77;;;16.80;99.90;;;;;;5116904;28;20221;-89
2022/10/02 14:04:01;;;;;;;10.53;4.80;;;16.80;99.90;;;;;;5116448;28;20710;-93
2022/10/02 14:06:34;;;;;;;12.43;5.07;;;16.80;99.90;;;;;;5131181;28;20207;-86
2022/10/02 14:09:22;;;;;;;10.23;4.80;;;16.80;99.90;;;;;;5137021;28;20191;-86
2022/10/02 14:12:04;;;;;;;10.20;5.47;;;16.80;99.90;;;;;;5132839;28;20209;-91
2022/10/02 14:14:55;;;;;;;6.73;4.40;;;16.80;99.90;;;;;;5137680;28;20212;-86
2022/10/02 14:17:51;;;;;;;10.50;4.93;;;16.90;99.90;;;;;;5136200;28;20190;-87
2022/10/02 14:20:34;;;;;;;11.43;4.97;;;17.30;99.90;;;;;;5138073;28;20209;-84
2022/10/02 14:23:35;;;;;;;15.00;5.50;;;17.30;99.90;;;;;;5139360;27;20191;-88
2022/10/02 14:26:32;;;;;;;8.33;4.27;;;17.30;99.90;;;;;;5138264;28;20219;-91